createdAt,value
2023-01-20T00:00:01.366Z,54.26
2023-01-20T00:02:34.132Z,54.09
2023-01-20T00:05:07.732Z,54.24
2023-01-20T00:07:39.996Z,54.42
2023-01-20T00:10:14.003Z,54.45
2023-01-20T00:12:46.312Z,54.47
2023-01-20T00:15:18.671Z,54.55
2023-01-20T00:17:51.043Z,54.46
2023-01-20T00:20:23.278Z,54.71
2023-01-20T00:22:55.793Z,54.62
2023-01-20T00:25:28.044Z,54.67
2023-01-20T00:28:00.308Z,54.46
2023-01-20T00:30:32.904Z,54.67
2023-01-20T00:33:05.238Z,54.85
2023-01-20T00:35:39.783Z,54.80
2023-01-20T00:38:12.115Z,54.81
2023-01-20T00:40:44.460Z,54.89
2023-01-20T00:43:16.762Z,54.88
2023-01-20T00:45:49.091Z,54.82
2023-01-20T00:48:21.493Z,54.79
2023-01-20T00:50:53.921Z,54.92
2023-01-20T00:53:27.932Z,55.10
2023-01-20T00:56:00.311Z,55.05
2023-01-20T00:58:32.643Z,55.05
2023-01-20T01:01:05.163Z,55.10
2023-01-20T01:03:37.518Z,55.20
2023-01-20T01:06:12.244Z,55.14
2023-01-20T01:08:45.112Z,55.21
2023-01-20T01:11:17.366Z,55.31
2023-01-20T01:13:49.692Z,55.41
2023-01-20T01:16:22.077Z,55.45
2023-01-20T01:18:55.994Z,55.49
2023-01-20T01:21:28.448Z,55.55
2023-01-20T01:24:00.928Z,55.65
2023-01-20T01:26:34.355Z,55.62
2023-01-20T01:29:06.630Z,55.69
2023-01-20T01:31:39.125Z,55.81
2023-01-20T01:34:11.572Z,55.80
2023-01-20T01:36:44.052Z,55.86
2023-01-20T01:39:16.283Z,55.95
2023-01-20T01:41:48.718Z,55.97
2023-01-20T01:44:21.433Z,56.07
2023-01-20T01:46:53.731Z,56.04
2023-01-20T01:49:30.587Z,56.06
2023-01-20T01:52:10.229Z,56.20
2023-01-20T01:54:45.756Z,56.17
2023-01-20T01:57:18.259Z,56.26
2023-01-20T01:59:50.559Z,56.36
2023-01-20T02:02:24.137Z,56.30
2023-01-20T02:04:56.815Z,56.40
2023-01-20T02:07:29.528Z,56.58
2023-01-20T02:10:02.346Z,56.56
2023-01-20T02:12:34.722Z,56.42
2023-01-20T02:15:08.881Z,56.54
2023-01-20T02:17:47.465Z,56.52
2023-01-20T02:20:58.637Z,56.81
2023-01-20T02:23:46.174Z,56.77
2023-01-20T02:26:47.361Z,56.91
2023-01-20T02:29:48.600Z,56.77
2023-01-20T02:32:36.293Z,56.83
2023-01-20T02:35:16.317Z,56.86
2023-01-20T02:37:55.805Z,56.81
2023-01-20T02:40:40.812Z,56.87
2023-01-20T02:43:19.243Z,56.90
2023-01-20T02:45:57.802Z,56.82
2023-01-20T02:48:36.320Z,56.95
2023-01-20T02:51:14.453Z,57.08
2023-01-20T02:53:51.683Z,57.37
2023-01-20T02:56:27.944Z,57.25
2023-01-20T02:59:04.417Z,57.26
2023-01-20T03:01:41.470Z,57.31
2023-01-20T03:04:19.065Z,57.33
2023-01-20T03:06:55.877Z,57.39
2023-01-20T03:09:34.469Z,57.33
2023-01-20T03:12:15.347Z,57.49
2023-01-20T03:14:47.716Z,57.53
2023-01-20T03:17:20.200Z,57.52
2023-01-20T03:19:52.724Z,57.59
2023-01-20T03:22:25.552Z,57.66
2023-01-20T03:25:00.130Z,57.63
2023-01-20T03:27:32.916Z,57.71
2023-01-20T03:30:07.317Z,57.64
2023-01-20T03:32:39.791Z,57.79
2023-01-20T03:35:14.271Z,58.01
2023-01-20T03:37:47.360Z,57.99
2023-01-20T03:40:20.589Z,58.09
2023-01-20T03:42:59.768Z,58.15
2023-01-20T03:45:39.339Z,58.16
2023-01-20T03:48:18.934Z,58.34
2023-01-20T03:50:58.458Z,58.45
2023-01-20T03:53:37.574Z,58.44
2023-01-20T03:56:16.026Z,58.59
2023-01-20T03:58:52.249Z,58.88
2023-01-20T04:01:28.710Z,59.01
2023-01-20T04:04:03.317Z,59.35
2023-01-20T04:06:37.922Z,59.39
2023-01-20T04:09:13.989Z,59.53
2023-01-20T04:11:46.287Z,59.40
2023-01-20T04:14:18.747Z,59.45
2023-01-20T04:16:56.537Z,59.53
2023-01-20T04:19:29.442Z,59.63
2023-01-20T04:22:07.985Z,59.70
2023-01-20T04:24:46.104Z,59.53
2023-01-20T04:27:18.410Z,59.69
2023-01-20T04:29:50.780Z,59.57
2023-01-20T04:32:23.242Z,59.68
2023-01-20T04:34:55.565Z,59.68
2023-01-20T04:37:27.828Z,59.58
2023-01-20T04:40:00.148Z,59.67
2023-01-20T04:42:32.749Z,59.65
2023-01-20T04:45:05.549Z,59.73
2023-01-20T04:47:37.953Z,59.89
2023-01-20T04:50:12.433Z,59.79
2023-01-20T04:52:45.160Z,59.77
2023-01-20T04:55:17.640Z,59.90
2023-01-20T04:57:51.555Z,60.04
2023-01-20T05:00:24.482Z,59.98
2023-01-20T05:02:59.851Z,60.00
2023-01-20T05:05:32.377Z,60.02
2023-01-20T05:08:05.521Z,60.14
2023-01-20T05:10:38.279Z,60.22
2023-01-20T05:13:10.683Z,60.11
2023-01-20T05:15:44.033Z,60.30
2023-01-20T05:18:16.426Z,60.34
2023-01-20T05:20:50.123Z,60.44
2023-01-20T05:23:22.471Z,60.66
2023-01-20T05:25:55.179Z,60.54
2023-01-20T05:28:27.547Z,60.63
2023-01-20T05:30:59.947Z,60.56
2023-01-20T05:33:32.304Z,60.57
2023-01-20T05:36:08.362Z,60.82
2023-01-20T05:38:40.760Z,60.80
2023-01-20T05:41:13.182Z,60.86
2023-01-20T05:43:45.351Z,60.89
2023-01-20T05:46:17.628Z,61.05
2023-01-20T05:48:49.901Z,60.97
2023-01-20T05:51:22.185Z,60.89
2023-01-20T05:53:54.531Z,61.07
2023-01-20T05:56:27.069Z,61.06
2023-01-20T05:58:59.382Z,61.07
2023-01-20T06:01:31.779Z,61.20
2023-01-20T06:04:04.210Z,61.19
2023-01-20T06:06:36.672Z,61.24
2023-01-20T06:09:11.040Z,61.36
2023-01-20T06:11:43.484Z,61.28
2023-01-20T06:14:15.816Z,61.30
2023-01-20T06:16:48.180Z,61.23
2023-01-20T06:19:20.424Z,61.46
2023-01-20T06:21:53.799Z,61.32
2023-01-20T06:24:26.156Z,61.38
2023-01-20T06:26:58.423Z,61.61
2023-01-20T06:29:31.947Z,61.43
2023-01-20T06:32:04.411Z,61.45
2023-01-20T06:34:36.790Z,61.37
2023-01-20T06:37:09.039Z,61.46
2023-01-20T06:39:41.351Z,61.47
2023-01-20T06:42:13.761Z,61.57
2023-01-20T06:44:46.352Z,61.54
2023-01-20T06:47:18.722Z,61.58
2023-01-20T06:49:51.215Z,61.66
2023-01-20T06:52:23.541Z,61.68
2023-01-20T06:54:55.785Z,61.53
2023-01-20T06:57:28.135Z,61.37
2023-01-20T07:00:00.485Z,61.49
2023-01-20T07:02:32.935Z,61.54
2023-01-20T07:05:08.261Z,61.72
2023-01-20T07:07:40.597Z,61.75
2023-01-20T07:10:14.715Z,61.65
2023-01-20T07:12:47.083Z,61.77
2023-01-20T07:15:19.528Z,61.71
2023-01-20T07:17:52.170Z,61.66
2023-01-20T07:20:24.506Z,61.82
2023-01-20T07:22:56.801Z,61.78
2023-01-20T07:25:29.343Z,61.62
2023-01-20T07:28:01.572Z,61.61
2023-01-20T07:30:33.779Z,61.63
2023-01-20T07:33:06.307Z,61.76
2023-01-20T07:35:38.689Z,61.73
2023-01-20T07:38:11.005Z,61.67
2023-01-20T07:40:43.502Z,61.63
2023-01-20T07:43:15.902Z,61.49
2023-01-20T07:45:48.375Z,61.41
2023-01-20T07:48:20.876Z,61.54
2023-01-20T07:51:02.862Z,61.56
2023-01-20T07:53:36.852Z,61.46
2023-01-20T07:56:12.488Z,61.42
2023-01-20T07:58:46.294Z,61.39
2023-01-20T08:01:21.012Z,61.57
2023-01-20T08:03:54.035Z,61.61
2023-01-20T08:06:27.757Z,61.48
2023-01-20T08:09:03.179Z,61.60
2023-01-20T08:11:34.082Z,61.56
2023-01-20T08:14:06.581Z,61.55
2023-01-20T08:16:38.969Z,61.73
2023-01-20T08:19:11.300Z,61.64
2023-01-20T08:21:43.617Z,61.55
2023-01-20T08:24:15.939Z,61.65
2023-01-20T08:26:48.259Z,61.57
2023-01-20T08:29:20.603Z,61.55
2023-01-20T08:31:52.996Z,61.48
2023-01-20T08:34:25.580Z,61.61
2023-01-20T08:36:58.209Z,61.48
2023-01-20T08:39:30.611Z,61.54
2023-01-20T08:42:03.283Z,61.45
2023-01-20T08:44:35.584Z,61.50
2023-01-20T08:47:08.083Z,61.49
2023-01-20T08:49:40.350Z,61.44
2023-01-20T08:52:30.343Z,61.46
2023-01-20T08:55:02.716Z,61.34
2023-01-20T08:57:35.101Z,61.37
2023-01-20T09:00:11.123Z,61.43
2023-01-20T09:02:43.766Z,61.54
2023-01-20T09:05:16.690Z,61.45
2023-01-20T09:07:49.222Z,61.40
2023-01-20T09:10:22.360Z,61.45
2023-01-20T09:12:54.791Z,61.55
2023-01-20T09:15:27.118Z,61.49
2023-01-20T09:18:00.073Z,61.46
2023-01-20T09:20:32.513Z,61.66
2023-01-20T09:23:05.509Z,61.49
2023-01-20T09:25:37.797Z,61.59
2023-01-20T09:28:10.020Z,61.47
2023-01-20T09:30:43.135Z,61.37
2023-01-20T09:33:16.666Z,61.47
2023-01-20T09:35:57.172Z,61.52
2023-01-20T09:38:47.792Z,61.43
2023-01-20T09:41:45.597Z,61.35
2023-01-20T09:44:40.124Z,61.35
2023-01-20T09:47:26.705Z,61.27
2023-01-20T09:50:31.258Z,61.16
2023-01-20T09:53:15.678Z,61.14
2023-01-20T09:55:52.801Z,61.18
2023-01-20T09:58:33.311Z,61.02
2023-01-20T10:01:14.329Z,61.03
2023-01-20T10:03:54.328Z,61.03
2023-01-20T10:06:32.971Z,61.03
2023-01-20T10:09:10.940Z,61.01
2023-01-20T10:11:47.606Z,60.97
2023-01-20T10:14:24.190Z,60.90
2023-01-20T10:17:04.778Z,60.84
2023-01-20T10:19:45.008Z,60.88
2023-01-20T10:22:23.686Z,60.92
2023-01-20T10:25:05.644Z,60.79
2023-01-20T10:27:43.836Z,60.80
2023-01-20T10:30:18.434Z,60.75
2023-01-20T10:32:59.847Z,60.69
2023-01-20T10:35:38.237Z,60.63
2023-01-20T10:38:21.191Z,60.52
2023-01-20T10:40:58.635Z,60.50
2023-01-20T10:43:31.877Z,60.33
2023-01-20T10:46:18.351Z,60.34
2023-01-20T10:49:19.286Z,60.38
2023-01-20T10:52:05.262Z,60.14
2023-01-20T10:54:44.344Z,59.79
2023-01-20T10:57:17.869Z,59.73
2023-01-20T10:59:54.017Z,59.40
2023-01-20T11:02:29.605Z,58.96
2023-01-20T11:05:01.104Z,59.03
2023-01-20T11:07:35.690Z,58.68
2023-01-20T11:10:18.155Z,58.58
2023-01-20T11:12:54.908Z,58.47
2023-01-20T11:15:31.226Z,58.43
2023-01-20T11:18:29.083Z,58.18
2023-01-20T11:21:04.433Z,58.27
2023-01-20T11:23:40.807Z,58.16
2023-01-20T11:26:22.367Z,57.99
2023-01-20T11:28:57.193Z,58.13
2023-01-20T11:31:40.887Z,57.90
2023-01-20T11:34:26.747Z,57.92
2023-01-20T11:37:19.267Z,57.82
2023-01-20T11:40:03.515Z,57.77
2023-01-20T11:42:46.545Z,57.65
2023-01-20T11:45:34.817Z,57.55
2023-01-20T11:48:18.115Z,57.33
2023-01-20T11:50:56.298Z,57.30
2023-01-20T11:53:31.772Z,57.19
2023-01-20T11:56:07.102Z,56.89
2023-01-20T11:58:54.818Z,56.92
2023-01-20T12:01:29.552Z,56.28
2023-01-20T12:04:38.344Z,56.12
2023-01-20T12:07:16.215Z,55.83
2023-01-20T12:09:52.561Z,55.75
2023-01-20T12:12:33.734Z,55.83
2023-01-20T12:15:13.253Z,55.61
2023-01-20T12:17:59.839Z,55.01
2023-01-20T12:20:53.677Z,55.03
2023-01-20T12:23:46.140Z,54.64
2023-01-20T12:26:21.399Z,54.54
2023-01-20T12:29:01.585Z,54.38
2023-01-20T12:31:34.668Z,54.44
2023-01-20T12:34:12.356Z,54.05
2023-01-20T12:37:01.329Z,54.11
2023-01-20T12:39:48.879Z,53.84
2023-01-20T12:42:59.122Z,53.87
2023-01-20T12:45:48.226Z,53.81
2023-01-20T12:48:43.613Z,53.58
2023-01-20T12:51:28.561Z,53.62
2023-01-20T12:54:48.311Z,52.96
2023-01-20T12:57:49.054Z,53.23
2023-01-20T13:00:35.336Z,52.82
2023-01-20T13:03:35.034Z,53.28
2023-01-20T13:06:42.420Z,52.90
2023-01-20T13:09:30.292Z,52.76
2023-01-20T13:12:13.971Z,52.88
2023-01-20T13:14:50.369Z,52.49
2023-01-20T13:17:29.524Z,52.14
2023-01-20T13:20:06.130Z,52.49
2023-01-20T13:22:39.509Z,52.10
2023-01-20T13:25:19.210Z,51.93
2023-01-20T13:27:54.696Z,52.07
2023-01-20T13:30:48.150Z,51.75
2023-01-20T13:33:35.337Z,51.39
2023-01-20T13:36:19.811Z,51.52
2023-01-20T13:39:12.946Z,51.54
2023-01-20T13:41:52.359Z,51.37
2023-01-20T13:44:38.145Z,51.54
2023-01-20T13:47:12.366Z,51.35
2023-01-20T13:49:55.175Z,51.37
2023-01-20T13:53:09.124Z,51.22
2023-01-20T13:55:59.319Z,51.37
2023-01-20T13:58:33.598Z,51.33
2023-01-20T14:01:09.023Z,51.11
2023-01-20T14:03:43.206Z,50.92
2023-01-20T14:06:26.216Z,51.01
2023-01-20T14:08:58.447Z,50.96
2023-01-20T14:11:32.287Z,51.09
2023-01-20T14:14:22.877Z,51.28
2023-01-20T14:16:57.247Z,51.37
2023-01-20T14:19:32.560Z,51.36
2023-01-20T14:22:18.428Z,51.49
2023-01-20T14:24:52.741Z,51.55
2023-01-20T14:27:28.206Z,51.60
2023-01-20T14:30:14.908Z,51.55
2023-01-20T14:32:48.200Z,51.62
2023-01-20T14:35:29.061Z,51.24
2023-01-20T14:38:02.145Z,50.92
2023-01-20T14:40:36.104Z,50.82
2023-01-20T14:43:19.615Z,50.74
2023-01-20T14:45:54.310Z,50.72
2023-01-20T14:48:34.868Z,50.74
2023-01-20T14:51:11.503Z,50.69
2023-01-20T14:53:45.660Z,50.72
2023-01-20T14:56:22.912Z,50.69
2023-01-20T14:58:58.313Z,50.74
2023-01-20T15:01:30.709Z,50.79
2023-01-20T15:04:06.139Z,50.84
2023-01-20T15:06:38.380Z,50.90
2023-01-20T15:09:33.665Z,50.94
2023-01-20T15:12:39.658Z,51.00
2023-01-20T15:15:20.511Z,51.05
2023-01-20T15:18:19.952Z,51.00
2023-01-20T15:21:11.660Z,50.99
2023-01-20T15:23:52.662Z,50.97
2023-01-20T15:26:31.311Z,51.17
2023-01-20T15:29:03.719Z,51.21
2023-01-20T15:31:36.072Z,51.25
2023-01-20T15:34:09.340Z,51.26
2023-01-20T15:36:41.772Z,51.38
2023-01-20T15:39:14.498Z,51.48
2023-01-20T15:41:48.989Z,51.41
2023-01-20T15:44:21.738Z,51.51
2023-01-20T15:46:57.119Z,51.72
2023-01-20T15:49:28.124Z,51.84
2023-01-20T15:52:00.606Z,51.91
2023-01-20T15:54:32.985Z,51.99
2023-01-20T15:57:09.749Z,52.29
2023-01-20T15:59:45.521Z,52.27
2023-01-20T16:02:21.463Z,52.30
2023-01-20T16:04:53.924Z,52.46
2023-01-20T16:07:26.358Z,52.65
2023-01-20T16:09:58.578Z,52.82
2023-01-20T16:12:30.942Z,53.00
2023-01-20T16:15:03.289Z,53.05
2023-01-20T16:17:36.125Z,53.11
2023-01-20T16:20:18.137Z,53.27
2023-01-20T16:22:51.526Z,53.41
2023-01-20T16:25:24.924Z,53.57
2023-01-20T16:27:57.309Z,53.79
2023-01-20T16:30:30.090Z,53.83
2023-01-20T16:33:02.481Z,54.00
2023-01-20T16:35:35.219Z,54.23
2023-01-20T16:38:07.566Z,54.21
2023-01-20T16:40:45.671Z,54.49
2023-01-20T16:43:18.836Z,54.57
2023-01-20T16:45:55.338Z,54.71
2023-01-20T16:48:29.404Z,55.10
2023-01-20T16:51:05.569Z,55.05
2023-01-20T16:53:37.936Z,55.24
2023-01-20T16:56:15.764Z,55.40
2023-01-20T16:58:50.521Z,55.52
2023-01-20T17:01:24.841Z,55.49
2023-01-20T17:03:59.273Z,55.66
2023-01-20T17:06:33.679Z,55.67
2023-01-20T17:09:07.238Z,55.58
2023-01-20T17:11:41.621Z,55.75
2023-01-20T17:14:15.713Z,55.86
2023-01-20T17:16:48.112Z,56.09
2023-01-20T17:19:21.296Z,56.14
2023-01-20T17:21:54.846Z,56.20
2023-01-20T17:24:27.560Z,56.30
2023-01-20T17:26:59.791Z,56.35
2023-01-20T17:29:32.959Z,56.65
2023-01-20T17:32:05.603Z,56.68
2023-01-20T17:34:37.978Z,56.71
2023-01-20T17:37:10.429Z,57.33
2023-01-20T17:39:42.743Z,57.38
2023-01-20T17:42:17.556Z,57.85
2023-01-20T17:44:50.137Z,57.76
2023-01-20T17:47:22.458Z,58.21
2023-01-20T17:49:54.780Z,58.64
2023-01-20T17:52:27.154Z,58.55
2023-01-20T17:54:59.470Z,59.29
2023-01-20T17:57:32.689Z,59.12
2023-01-20T18:00:06.630Z,59.31
2023-01-20T18:02:39.112Z,59.41
2023-01-20T18:05:11.908Z,59.42
2023-01-20T18:07:44.198Z,59.51
2023-01-20T18:10:16.857Z,59.96
2023-01-20T18:12:49.458Z,60.08
2023-01-20T18:15:22.616Z,60.26
2023-01-20T18:17:54.969Z,60.20
2023-01-20T18:20:27.272Z,60.18
2023-01-20T18:23:00.012Z,60.61
2023-01-20T18:25:33.195Z,60.54
2023-01-20T18:28:05.737Z,60.77
2023-01-20T18:30:38.235Z,61.00
2023-01-20T18:33:10.525Z,61.05
2023-01-20T18:35:42.884Z,61.31
2023-01-20T18:38:15.165Z,61.35
2023-01-20T18:40:47.744Z,61.27
2023-01-20T18:43:19.988Z,61.19
2023-01-20T18:45:55.351Z,61.23
2023-01-20T18:48:28.004Z,61.31
2023-01-20T18:51:03.098Z,61.79
2023-01-20T18:53:35.567Z,61.58
2023-01-20T18:56:10.979Z,61.78
2023-01-20T18:58:47.275Z,62.00
2023-01-20T19:01:21.398Z,62.20
2023-01-20T19:03:54.039Z,62.33
2023-01-20T19:06:28.168Z,62.40
2023-01-20T19:09:01.281Z,62.52
2023-01-20T19:11:36.209Z,62.58
2023-01-20T19:14:11.190Z,62.68
2023-01-20T19:16:45.661Z,62.76
2023-01-20T19:19:19.356Z,62.82
2023-01-20T19:21:54.529Z,63.20
2023-01-20T19:24:29.263Z,63.22
2023-01-20T19:27:03.205Z,63.18
2023-01-20T19:29:35.565Z,63.40
2023-01-20T19:32:08.089Z,63.30
2023-01-20T19:34:43.716Z,63.52
2023-01-20T19:37:16.009Z,63.46
2023-01-20T19:39:50.418Z,63.72
2023-01-20T19:42:25.754Z,63.66
2023-01-20T19:44:58.369Z,63.76
2023-01-20T19:47:33.612Z,63.70
2023-01-20T19:50:06.845Z,63.83
2023-01-20T19:52:39.398Z,63.91
2023-01-20T19:55:11.742Z,63.95
2023-01-20T19:57:43.943Z,64.35
2023-01-20T20:00:18.510Z,64.21
2023-01-20T20:02:53.880Z,64.09
2023-01-20T20:05:26.209Z,64.13
2023-01-20T20:07:59.985Z,64.49
2023-01-20T20:10:32.209Z,64.47
2023-01-20T20:13:04.581Z,64.43
2023-01-20T20:15:36.961Z,64.73
2023-01-20T20:18:09.570Z,64.60
2023-01-20T20:20:43.436Z,64.51
2023-01-20T20:23:18.041Z,64.61
2023-01-20T20:25:56.083Z,64.83
2023-01-20T20:28:30.241Z,64.90
2023-01-20T20:31:08.245Z,64.76
2023-01-20T20:33:40.937Z,65.02
2023-01-20T20:36:14.317Z,65.15
2023-01-20T20:38:51.300Z,65.10
2023-01-20T20:41:25.926Z,65.37
2023-01-20T20:43:58.693Z,65.58
2023-01-20T20:46:31.069Z,65.60
2023-01-20T20:49:03.968Z,65.33
2023-01-20T20:51:37.017Z,65.23
2023-01-20T20:54:13.204Z,65.33
2023-01-20T20:56:46.490Z,65.33
2023-01-20T20:59:23.229Z,65.43
2023-01-20T21:01:55.577Z,65.25
2023-01-20T21:04:30.214Z,65.27
2023-01-20T21:07:02.503Z,65.33
2023-01-20T21:09:38.070Z,65.12
2023-01-20T21:12:10.611Z,64.97
2023-01-20T21:14:43.460Z,64.84
2023-01-20T21:17:16.196Z,64.83
2023-01-20T21:19:52.214Z,64.96
2023-01-20T21:22:24.754Z,64.83
2023-01-20T21:24:57.057Z,64.73
2023-01-20T21:27:29.466Z,65.10
2023-01-20T21:30:01.843Z,65.15
2023-01-20T21:32:34.108Z,65.08
2023-01-20T21:35:07.558Z,65.11
2023-01-20T21:37:40.105Z,64.71
2023-01-20T21:40:14.857Z,64.93
2023-01-20T21:42:47.364Z,64.92
2023-01-20T21:45:19.756Z,65.16
2023-01-20T21:47:52.099Z,65.46
2023-01-20T21:50:41.764Z,65.37
2023-01-20T21:53:16.334Z,65.16
2023-01-20T21:55:48.635Z,65.28
2023-01-20T21:58:20.929Z,65.27
2023-01-20T22:00:57.325Z,65.22
2023-01-20T22:03:29.609Z,65.21
2023-01-20T22:06:03.590Z,65.28
2023-01-20T22:08:35.887Z,65.23
2023-01-20T22:11:08.415Z,65.23
2023-01-20T22:13:40.643Z,65.07
2023-01-20T22:16:13.127Z,65.08
2023-01-20T22:18:48.041Z,65.00
2023-01-20T22:21:20.864Z,65.21
2023-01-20T22:23:53.738Z,65.38
2023-01-20T22:26:25.973Z,65.36
2023-01-20T22:28:58.359Z,65.13
2023-01-20T22:31:32.106Z,65.33
2023-01-20T22:34:06.514Z,65.16
2023-01-20T22:36:39.175Z,65.31
2023-01-20T22:39:14.204Z,65.32
2023-01-20T22:41:46.443Z,65.52
2023-01-20T22:44:18.980Z,65.38
2023-01-20T22:46:51.525Z,65.34
2023-01-20T22:49:23.940Z,65.42
2023-01-20T22:51:57.945Z,65.42
2023-01-20T22:54:30.353Z,65.41
2023-01-20T22:57:02.598Z,65.39
2023-01-20T22:59:35.803Z,65.38
2023-01-20T23:02:08.365Z,65.26
2023-01-20T23:04:40.723Z,65.17
2023-01-20T23:07:12.990Z,65.38
2023-01-20T23:09:46.492Z,65.25
2023-01-20T23:12:18.906Z,65.11
2023-01-20T23:15:00.022Z,65.42
2023-01-20T23:17:33.890Z,65.28
2023-01-20T23:20:07.370Z,65.41
2023-01-20T23:22:39.654Z,65.44
2023-01-20T23:25:12.540Z,65.46
2023-01-20T23:27:44.828Z,65.42
2023-01-20T23:30:18.397Z,65.53
2023-01-20T23:32:50.841Z,65.39
2023-01-20T23:35:23.130Z,65.47
2023-01-20T23:37:55.494Z,65.43
2023-01-20T23:40:28.590Z,65.48
2023-01-20T23:43:00.858Z,65.50
2023-01-20T23:45:33.234Z,65.59
2023-01-20T23:48:05.900Z,65.43
2023-01-20T23:50:38.254Z,65.60
2023-01-20T23:53:10.578Z,65.52
2023-01-20T23:55:42.878Z,65.61
2023-01-20T23:58:15.242Z,65.67
